Terminal Aerodrome Forecast
Issued by NWS Goodland, KS

Home | Current Version | Previous Version | Text Only | Print | Product List | Glossary On
Versions: 1 2 3 4 5 6 7 8 9 10 11 12 13 14 15 16 17 18 19 20 21 22 23 24 25 26 27
067
FTUS43 KGLD 251720
TAFGLD
TAF
KGLD 251720Z 2518/2618 31004KT P6SM BKN022
     FM252030 18005KT P6SM FEW090
     FM260200 13005KT P6SM FEW250
      TEMPO 2604/2608 5SM -SHRA BKN060
     FM260800 05005KT 3SM BR SCT010
     FM261400 06005KT P6SM VCSH SCT040 SCT120=

USA.gov is the U.S. government's official web portal to all federal, state and local government web resources and services.